sensor_id;sensor_type;location;lat;lon;timestamp;P1;durP1;ratioP1;P2;durP2;ratioP2
21630;SDS011;10977;46.802;11.952;2022-08-19T00:01:38;8.70;;;3.95;;
21630;SDS011;10977;46.802;11.952;2022-08-19T00:04:07;6.47;;;3.80;;
21630;SDS011;10977;46.802;11.952;2022-08-19T00:06:34;6.93;;;3.80;;
21630;SDS011;10977;46.802;11.952;2022-08-19T00:09:00;5.80;;;3.15;;
21630;SDS011;10977;46.802;11.952;2022-08-19T00:11:26;8.48;;;2.90;;
21630;SDS011;10977;46.802;11.952;2022-08-19T00:13:53;6.10;;;2.78;;
21630;SDS011;10977;46.802;11.952;2022-08-19T00:16:20;7.85;;;3.20;;
21630;SDS011;10977;46.802;11.952;2022-08-19T00:18:45;5.65;;;3.10;;
21630;SDS011;10977;46.802;11.952;2022-08-19T00:21:11;4.57;;;3.03;;
21630;SDS011;10977;46.802;11.952;2022-08-19T00:23:37;6.82;;;2.90;;
21630;SDS011;10977;46.802;11.952;2022-08-19T00:26:05;3.60;;;2.50;;
21630;SDS011;10977;46.802;11.952;2022-08-19T00:28:32;4.18;;;2.85;;
21630;SDS011;10977;46.802;11.952;2022-08-19T00:30:58;4.28;;;2.70;;
21630;SDS011;10977;46.802;11.952;2022-08-19T00:33:24;6.60;;;2.80;;
21630;SDS011;10977;46.802;11.952;2022-08-19T00:35:50;5.57;;;3.35;;
21630;SDS011;10977;46.802;11.952;2022-08-19T00:38:15;6.25;;;2.97;;
21630;SDS011;10977;46.802;11.952;2022-08-19T00:40:42;7.07;;;3.05;;
21630;SDS011;10977;46.802;11.952;2022-08-19T00:43:11;8.18;;;3.13;;
21630;SDS011;10977;46.802;11.952;2022-08-19T00:45:38;9.02;;;2.78;;
21630;SDS011;10977;46.802;11.952;2022-08-19T00:48:07;6.15;;;3.25;;
21630;SDS011;10977;46.802;11.952;2022-08-19T00:50:33;9.18;;;2.88;;
21630;SDS011;10977;46.802;11.952;2022-08-19T00:53:00;4.80;;;3.35;;
21630;SDS011;10977;46.802;11.952;2022-08-19T00:55:29;6.65;;;2.85;;
21630;SDS011;10977;46.802;11.952;2022-08-19T00:58:02;3.45;;;2.90;;
21630;SDS011;10977;46.802;11.952;2022-08-19T01:00:32;4.30;;;2.70;;
21630;SDS011;10977;46.802;11.952;2022-08-19T01:03:01;5.53;;;3.28;;
21630;SDS011;10977;46.802;11.952;2022-08-19T01:05:28;5.53;;;3.28;;
21630;SDS011;10977;46.802;11.952;2022-08-19T01:07:54;5.90;;;2.75;;
21630;SDS011;10977;46.802;11.952;2022-08-19T01:10:23;6.28;;;3.08;;
21630;SDS011;10977;46.802;11.952;2022-08-19T01:12:51;6.82;;;2.80;;
21630;SDS011;10977;46.802;11.952;2022-08-19T01:15:20;4.78;;;3.35;;
21630;SDS011;10977;46.802;11.952;2022-08-19T01:17:49;5.63;;;3.30;;
21630;SDS011;10977;46.802;11.952;2022-08-19T01:20:17;5.85;;;3.47;;
21630;SDS011;10977;46.802;11.952;2022-08-19T01:22:46;6.63;;;3.28;;
21630;SDS011;10977;46.802;11.952;2022-08-19T01:25:15;5.60;;;3.20;;
21630;SDS011;10977;46.802;11.952;2022-08-19T01:27:44;4.80;;;3.03;;
21630;SDS011;10977;46.802;11.952;2022-08-19T01:30:13;6.13;;;3.67;;
21630;SDS011;10977;46.802;11.952;2022-08-19T01:32:41;5.85;;;3.72;;
21630;SDS011;10977;46.802;11.952;2022-08-19T01:35:07;6.65;;;3.60;;
21630;SDS011;10977;46.802;11.952;2022-08-19T01:37:49;7.50;;;3.80;;
21630;SDS011;10977;46.802;11.952;2022-08-19T01:40:18;8.07;;;3.70;;
21630;SDS011;10977;46.802;11.952;2022-08-19T01:42:46;9.02;;;3.75;;
21630;SDS011;10977;46.802;11.952;2022-08-19T01:45:13;10.70;;;6.18;;
21630;SDS011;10977;46.802;11.952;2022-08-19T01:47:38;14.95;;;7.32;;
21630;SDS011;10977;46.802;11.952;2022-08-19T01:50:05;8.68;;;5.43;;
21630;SDS011;10977;46.802;11.952;2022-08-19T01:52:34;8.32;;;4.38;;
21630;SDS011;10977;46.802;11.952;2022-08-19T01:55:01;7.15;;;3.97;;
21630;SDS011;10977;46.802;11.952;2022-08-19T01:57:26;6.65;;;4.00;;
21630;SDS011;10977;46.802;11.952;2022-08-19T01:59:52;7.18;;;4.25;;
21630;SDS011;10977;46.802;11.952;2022-08-19T02:02:18;4.75;;;3.55;;
21630;SDS011;10977;46.802;11.952;2022-08-19T02:04:44;10.30;;;4.28;;
21630;SDS011;10977;46.802;11.952;2022-08-19T02:07:10;6.95;;;4.03;;
21630;SDS011;10977;46.802;11.952;2022-08-19T02:09:36;6.30;;;3.53;;
21630;SDS011;10977;46.802;11.952;2022-08-19T02:12:01;5.32;;;3.65;;
21630;SDS011;10977;46.802;11.952;2022-08-19T02:14:28;5.45;;;3.70;;
21630;SDS011;10977;46.802;11.952;2022-08-19T02:16:53;7.55;;;3.90;;
21630;SDS011;10977;46.802;11.952;2022-08-19T02:19:18;6.80;;;3.72;;
21630;SDS011;10977;46.802;11.952;2022-08-19T02:21:44;5.82;;;3.45;;
21630;SDS011;10977;46.802;11.952;2022-08-19T02:24:09;7.35;;;4.18;;
21630;SDS011;10977;46.802;11.952;2022-08-19T02:26:34;6.75;;;3.22;;
21630;SDS011;10977;46.802;11.952;2022-08-19T02:29:00;5.32;;;3.38;;
21630;SDS011;10977;46.802;11.952;2022-08-19T02:31:25;7.30;;;3.92;;
21630;SDS011;10977;46.802;11.952;2022-08-19T02:33:53;7.28;;;4.13;;
21630;SDS011;10977;46.802;11.952;2022-08-19T02:36:20;6.25;;;3.33;;
21630;SDS011;10977;46.802;11.952;2022-08-19T02:38:46;7.25;;;3.15;;
21630;SDS011;10977;46.802;11.952;2022-08-19T02:41:15;6.05;;;3.00;;
21630;SDS011;10977;46.802;11.952;2022-08-19T02:43:42;6.25;;;3.15;;
21630;SDS011;10977;46.802;11.952;2022-08-19T02:46:12;5.13;;;2.80;;
21630;SDS011;10977;46.802;11.952;2022-08-19T02:48:39;4.97;;;2.90;;
21630;SDS011;10977;46.802;11.952;2022-08-19T02:51:05;4.85;;;2.85;;
21630;SDS011;10977;46.802;11.952;2022-08-19T02:53:30;6.82;;;3.20;;
21630;SDS011;10977;46.802;11.952;2022-08-19T02:55:56;4.15;;;3.03;;
21630;SDS011;10977;46.802;11.952;2022-08-19T02:58:21;8.85;;;2.63;;
21630;SDS011;10977;46.802;11.952;2022-08-19T03:00:49;7.00;;;2.90;;
21630;SDS011;10977;46.802;11.952;2022-08-19T03:03:17;7.13;;;2.80;;
21630;SDS011;10977;46.802;11.952;2022-08-19T03:05:44;4.55;;;2.70;;
21630;SDS011;10977;46.802;11.952;2022-08-19T03:08:11;6.90;;;2.63;;
21630;SDS011;10977;46.802;11.952;2022-08-19T03:10:41;7.28;;;2.70;;
21630;SDS011;10977;46.802;11.952;2022-08-19T03:13:14;3.63;;;2.30;;
21630;SDS011;10977;46.802;11.952;2022-08-19T03:15:42;6.38;;;2.78;;
21630;SDS011;10977;46.802;11.952;2022-08-19T03:18:09;5.80;;;2.60;;
21630;SDS011;10977;46.802;11.952;2022-08-19T03:20:39;9.20;;;2.75;;
21630;SDS011;10977;46.802;11.952;2022-08-19T03:23:06;3.90;;;2.97;;
21630;SDS011;10977;46.802;11.952;2022-08-19T03:25:35;6.55;;;2.42;;
21630;SDS011;10977;46.802;11.952;2022-08-19T03:28:02;3.72;;;2.03;;
21630;SDS011;10977;46.802;11.952;2022-08-19T03:30:28;5.35;;;2.30;;
21630;SDS011;10977;46.802;11.952;2022-08-19T03:32:53;4.28;;;2.03;;
21630;SDS011;10977;46.802;11.952;2022-08-19T03:35:18;6.57;;;2.13;;
21630;SDS011;10977;46.802;11.952;2022-08-19T03:37:45;8.43;;;2.00;;
21630;SDS011;10977;46.802;11.952;2022-08-19T03:40:10;6.38;;;1.90;;
21630;SDS011;10977;46.802;11.952;2022-08-19T03:42:36;4.57;;;2.10;;
21630;SDS011;10977;46.802;11.952;2022-08-19T03:45:01;2.22;;;1.60;;
21630;SDS011;10977;46.802;11.952;2022-08-19T03:47:27;5.75;;;1.75;;
21630;SDS011;10977;46.802;11.952;2022-08-19T03:49:52;3.65;;;1.50;;
21630;SDS011;10977;46.802;11.952;2022-08-19T03:52:18;2.05;;;1.67;;
21630;SDS011;10977;46.802;11.952;2022-08-19T03:54:43;2.22;;;1.20;;
21630;SDS011;10977;46.802;11.952;2022-08-19T03:57:09;2.88;;;1.58;;
21630;SDS011;10977;46.802;11.952;2022-08-19T03:59:36;3.10;;;1.88;;
21630;SDS011;10977;46.802;11.952;2022-08-19T04:02:05;3.38;;;1.60;;
21630;SDS011;10977;46.802;11.952;2022-08-19T04:04:34;2.92;;;1.98;;
21630;SDS011;10977;46.802;11.952;2022-08-19T04:06:59;7.22;;;1.73;;
21630;SDS011;10977;46.802;11.952;2022-08-19T04:09:24;3.65;;;1.60;;
21630;SDS011;10977;46.802;11.952;2022-08-19T04:11:52;3.53;;;1.80;;
21630;SDS011;10977;46.802;11.952;2022-08-19T04:14:22;5.20;;;1.52;;
21630;SDS011;10977;46.802;11.952;2022-08-19T04:16:50;4.55;;;1.58;;
21630;SDS011;10977;46.802;11.952;2022-08-19T04:19:17;5.60;;;1.58;;
21630;SDS011;10977;46.802;11.952;2022-08-19T04:21:44;4.65;;;1.85;;
21630;SDS011;10977;46.802;11.952;2022-08-19T04:24:11;1.30;;;1.13;;
21630;SDS011;10977;46.802;11.952;2022-08-19T04:26:38;5.18;;;1.45;;
21630;SDS011;10977;46.802;11.952;2022-08-19T04:29:05;3.60;;;1.83;;
21630;SDS011;10977;46.802;11.952;2022-08-19T04:31:57;6.32;;;1.80;;
21630;SDS011;10977;46.802;11.952;2022-08-19T04:34:24;2.67;;;1.45;;
21630;SDS011;10977;46.802;11.952;2022-08-19T04:36:52;4.38;;;1.67;;
21630;SDS011;10977;46.802;11.952;2022-08-19T04:39:21;5.35;;;1.52;;
21630;SDS011;10977;46.802;11.952;2022-08-19T04:42:12;4.43;;;1.60;;
21630;SDS011;10977;46.802;11.952;2022-08-19T04:44:57;3.70;;;1.40;;
21630;SDS011;10977;46.802;11.952;2022-08-19T04:47:23;6.07;;;1.70;;
21630;SDS011;10977;46.802;11.952;2022-08-19T04:49:49;4.47;;;1.60;;
21630;SDS011;10977;46.802;11.952;2022-08-19T04:52:14;3.88;;;1.77;;
21630;SDS011;10977;46.802;11.952;2022-08-19T04:54:40;3.67;;;1.45;;
21630;SDS011;10977;46.802;11.952;2022-08-19T04:57:06;2.38;;;1.20;;
21630;SDS011;10977;46.802;11.952;2022-08-19T04:59:34;3.13;;;1.38;;
21630;SDS011;10977;46.802;11.952;2022-08-19T05:02:01;2.35;;;1.25;;
21630;SDS011;10977;46.802;11.952;2022-08-19T05:04:26;3.45;;;1.52;;
21630;SDS011;10977;46.802;11.952;2022-08-19T05:06:56;2.20;;;1.50;;
21630;SDS011;10977;46.802;11.952;2022-08-19T05:09:22;4.68;;;1.50;;
21630;SDS011;10977;46.802;11.952;2022-08-19T05:11:47;4.72;;;1.88;;
21630;SDS011;10977;46.802;11.952;2022-08-19T05:14:14;4.35;;;1.40;;
21630;SDS011;10977;46.802;11.952;2022-08-19T05:16:40;4.70;;;1.77;;
21630;SDS011;10977;46.802;11.952;2022-08-19T05:19:05;3.28;;;1.70;;
21630;SDS011;10977;46.802;11.952;2022-08-19T05:21:49;4.07;;;1.50;;
21630;SDS011;10977;46.802;11.952;2022-08-19T05:24:33;4.00;;;1.50;;
21630;SDS011;10977;46.802;11.952;2022-08-19T05:26:59;3.05;;;1.27;;
21630;SDS011;10977;46.802;11.952;2022-08-19T05:29:28;4.00;;;1.35;;
21630;SDS011;10977;46.802;11.952;2022-08-19T05:31:54;2.90;;;1.20;;
21630;SDS011;10977;46.802;11.952;2022-08-19T05:34:21;6.20;;;1.00;;
21630;SDS011;10977;46.802;11.952;2022-08-19T05:36:50;2.83;;;1.30;;
21630;SDS011;10977;46.802;11.952;2022-08-19T05:39:22;1.75;;;0.90;;
21630;SDS011;10977;46.802;11.952;2022-08-19T05:41:51;5.57;;;1.40;;
21630;SDS011;10977;46.802;11.952;2022-08-19T05:44:19;9.73;;;1.42;;
21630;SDS011;10977;46.802;11.952;2022-08-19T05:46:46;3.35;;;1.40;;
21630;SDS011;10977;46.802;11.952;2022-08-19T05:49:13;4.53;;;1.23;;
21630;SDS011;10977;46.802;11.952;2022-08-19T05:51:40;6.90;;;1.60;;
21630;SDS011;10977;46.802;11.952;2022-08-19T05:54:07;3.53;;;1.40;;
21630;SDS011;10977;46.802;11.952;2022-08-19T05:56:33;9.65;;;5.65;;
21630;SDS011;10977;46.802;11.952;2022-08-19T05:59:03;3.75;;;2.08;;
21630;SDS011;10977;46.802;11.952;2022-08-19T06:01:33;4.22;;;1.95;;
21630;SDS011;10977;46.802;11.952;2022-08-19T06:03:59;3.35;;;2.10;;
21630;SDS011;10977;46.802;11.952;2022-08-19T06:06:25;2.95;;;1.80;;
21630;SDS011;10977;46.802;11.952;2022-08-19T06:08:50;5.63;;;2.17;;
21630;SDS011;10977;46.802;11.952;2022-08-19T06:13:59;3.95;;;1.85;;
21630;SDS011;10977;46.802;11.952;2022-08-19T06:16:26;4.65;;;2.22;;
21630;SDS011;10977;46.802;11.952;2022-08-19T06:18:52;4.28;;;1.65;;
21630;SDS011;10977;46.802;11.952;2022-08-19T06:21:20;6.95;;;2.47;;
21630;SDS011;10977;46.802;11.952;2022-08-19T06:23:46;3.72;;;1.73;;
21630;SDS011;10977;46.802;11.952;2022-08-19T06:26:13;6.18;;;2.05;;
21630;SDS011;10977;46.802;11.952;2022-08-19T06:28:39;3.70;;;2.15;;
21630;SDS011;10977;46.802;11.952;2022-08-19T06:31:11;5.95;;;2.00;;
21630;SDS011;10977;46.802;11.952;2022-08-19T06:33:38;5.65;;;1.90;;
21630;SDS011;10977;46.802;11.952;2022-08-19T06:36:04;7.97;;;2.15;;
21630;SDS011;10977;46.802;11.952;2022-08-19T06:38:30;2.72;;;1.90;;
21630;SDS011;10977;46.802;11.952;2022-08-19T06:41:01;4.22;;;1.67;;
21630;SDS011;10977;46.802;11.952;2022-08-19T06:43:28;3.10;;;1.80;;
21630;SDS011;10977;46.802;11.952;2022-08-19T06:45:53;3.88;;;2.13;;
21630;SDS011;10977;46.802;11.952;2022-08-19T06:48:19;5.75;;;2.10;;
21630;SDS011;10977;46.802;11.952;2022-08-19T06:50:44;24.70;;;17.92;;
21630;SDS011;10977;46.802;11.952;2022-08-19T06:53:10;11.18;;;8.85;;
21630;SDS011;10977;46.802;11.952;2022-08-19T06:55:35;6.95;;;4.03;;
21630;SDS011;10977;46.802;11.952;2022-08-19T06:58:02;5.47;;;3.00;;
21630;SDS011;10977;46.802;11.952;2022-08-19T07:00:29;7.20;;;2.72;;
21630;SDS011;10977;46.802;11.952;2022-08-19T07:02:54;4.38;;;2.38;;
21630;SDS011;10977;46.802;11.952;2022-08-19T07:05:19;8.52;;;2.33;;
21630;SDS011;10977;46.802;11.952;2022-08-19T07:07:45;3.60;;;2.00;;
21630;SDS011;10977;46.802;11.952;2022-08-19T07:10:11;4.93;;;2.08;;
21630;SDS011;10977;46.802;11.952;2022-08-19T07:12:36;5.57;;;1.90;;
21630;SDS011;10977;46.802;11.952;2022-08-19T07:15:05;3.75;;;2.10;;
21630;SDS011;10977;46.802;11.952;2022-08-19T07:17:33;2.65;;;1.58;;
21630;SDS011;10977;46.802;11.952;2022-08-19T07:20:02;14.80;;;3.42;;
21630;SDS011;10977;46.802;11.952;2022-08-19T07:22:28;3.83;;;1.92;;
21630;SDS011;10977;46.802;11.952;2022-08-19T07:24:53;6.10;;;2.25;;
21630;SDS011;10977;46.802;11.952;2022-08-19T07:27:18;7.95;;;1.90;;
21630;SDS011;10977;46.802;11.952;2022-08-19T07:29:44;3.13;;;1.60;;
21630;SDS011;10977;46.802;11.952;2022-08-19T07:32:10;3.78;;;1.40;;
21630;SDS011;10977;46.802;11.952;2022-08-19T07:34:36;2.35;;;1.27;;
21630;SDS011;10977;46.802;11.952;2022-08-19T07:37:03;3.22;;;1.60;;
21630;SDS011;10977;46.802;11.952;2022-08-19T07:39:30;2.10;;;1.20;;
21630;SDS011;10977;46.802;11.952;2022-08-19T07:41:58;1.85;;;1.20;;
21630;SDS011;10977;46.802;11.952;2022-08-19T07:44:25;3.58;;;1.40;;
21630;SDS011;10977;46.802;11.952;2022-08-19T07:46:54;3.28;;;1.30;;
21630;SDS011;10977;46.802;11.952;2022-08-19T07:49:22;4.82;;;1.80;;
21630;SDS011;10977;46.802;11.952;2022-08-19T07:51:58;5.07;;;2.17;;
21630;SDS011;10977;46.802;11.952;2022-08-19T07:54:26;2.55;;;1.52;;
21630;SDS011;10977;46.802;11.952;2022-08-19T07:56:54;2.33;;;1.42;;
21630;SDS011;10977;46.802;11.952;2022-08-19T07:59:20;3.42;;;1.50;;
21630;SDS011;10977;46.802;11.952;2022-08-19T08:01:46;5.28;;;1.40;;
21630;SDS011;10977;46.802;11.952;2022-08-19T08:04:13;1.70;;;1.50;;
21630;SDS011;10977;46.802;11.952;2022-08-19T08:06:57;2.65;;;1.15;;
21630;SDS011;10977;46.802;11.952;2022-08-19T08:09:42;3.13;;;1.02;;
21630;SDS011;10977;46.802;11.952;2022-08-19T08:12:13;2.75;;;1.50;;
21630;SDS011;10977;46.802;11.952;2022-08-19T08:14:50;3.25;;;1.40;;
21630;SDS011;10977;46.802;11.952;2022-08-19T08:17:18;3.55;;;1.50;;
21630;SDS011;10977;46.802;11.952;2022-08-19T08:19:44;3.40;;;1.35;;
21630;SDS011;10977;46.802;11.952;2022-08-19T08:22:11;2.05;;;1.00;;
21630;SDS011;10977;46.802;11.952;2022-08-19T08:27:51;2.20;;;1.10;;
21630;SDS011;10977;46.802;11.952;2022-08-19T08:30:19;4.00;;;1.27;;
21630;SDS011;10977;46.802;11.952;2022-08-19T08:32:46;2.38;;;1.00;;
21630;SDS011;10977;46.802;11.952;2022-08-19T08:35:14;1.63;;;0.90;;
21630;SDS011;10977;46.802;11.952;2022-08-19T08:37:42;4.03;;;1.20;;
21630;SDS011;10977;46.802;11.952;2022-08-19T08:40:19;2.00;;;1.02;;
21630;SDS011;10977;46.802;11.952;2022-08-19T08:42:54;4.05;;;1.27;;
21630;SDS011;10977;46.802;11.952;2022-08-19T08:45:32;4.85;;;1.60;;
21630;SDS011;10977;46.802;11.952;2022-08-19T08:48:02;2.42;;;1.20;;
21630;SDS011;10977;46.802;11.952;2022-08-19T08:50:36;1.30;;;1.20;;
21630;SDS011;10977;46.802;11.952;2022-08-19T08:53:08;10.60;;;1.63;;
21630;SDS011;10977;46.802;11.952;2022-08-19T08:55:35;7.68;;;1.30;;
21630;SDS011;10977;46.802;11.952;2022-08-19T08:58:05;2.40;;;1.10;;
21630;SDS011;10977;46.802;11.952;2022-08-19T09:00:46;4.07;;;1.08;;
21630;SDS011;10977;46.802;11.952;2022-08-19T09:03:20;1.45;;;0.80;;
21630;SDS011;10977;46.802;11.952;2022-08-19T09:09:02;4.55;;;1.00;;
21630;SDS011;10977;46.802;11.952;2022-08-19T09:11:40;5.53;;;0.93;;
21630;SDS011;10977;46.802;11.952;2022-08-19T09:16:32;2.28;;;0.68;;
21630;SDS011;10977;46.802;11.952;2022-08-19T09:19:01;1.65;;;0.60;;
21630;SDS011;10977;46.802;11.952;2022-08-19T09:21:28;1.83;;;0.90;;
21630;SDS011;10977;46.802;11.952;2022-08-19T09:23:53;2.13;;;0.75;;
21630;SDS011;10977;46.802;11.952;2022-08-19T09:26:20;2.83;;;0.90;;
21630;SDS011;10977;46.802;11.952;2022-08-19T09:28:48;4.45;;;0.90;;
21630;SDS011;10977;46.802;11.952;2022-08-19T09:31:16;2.30;;;1.35;;
21630;SDS011;10977;46.802;11.952;2022-08-19T09:33:43;1.27;;;0.80;;
21630;SDS011;10977;46.802;11.952;2022-08-19T09:36:10;2.65;;;0.85;;
21630;SDS011;10977;46.802;11.952;2022-08-19T09:38:37;3.35;;;0.95;;
21630;SDS011;10977;46.802;11.952;2022-08-19T09:41:07;2.53;;;1.00;;
21630;SDS011;10977;46.802;11.952;2022-08-19T09:43:36;1.17;;;0.70;;
21630;SDS011;10977;46.802;11.952;2022-08-19T09:46:02;2.35;;;0.98;;
21630;SDS011;10977;46.802;11.952;2022-08-19T09:48:34;3.08;;;0.77;;
21630;SDS011;10977;46.802;11.952;2022-08-19T09:51:04;1.60;;;0.73;;
21630;SDS011;10977;46.802;11.952;2022-08-19T09:53:33;2.42;;;0.73;;
21630;SDS011;10977;46.802;11.952;2022-08-19T09:55:59;3.90;;;0.90;;
21630;SDS011;10977;46.802;11.952;2022-08-19T09:58:24;1.70;;;1.02;;
21630;SDS011;10977;46.802;11.952;2022-08-19T10:00:53;2.40;;;0.73;;
21630;SDS011;10977;46.802;11.952;2022-08-19T10:03:19;1.65;;;0.70;;
21630;SDS011;10977;46.802;11.952;2022-08-19T10:05:44;1.98;;;0.68;;
21630;SDS011;10977;46.802;11.952;2022-08-19T10:08:13;1.25;;;0.77;;
21630;SDS011;10977;46.802;11.952;2022-08-19T10:10:42;3.35;;;0.80;;
21630;SDS011;10977;46.802;11.952;2022-08-19T10:13:09;2.20;;;1.10;;
21630;SDS011;10977;46.802;11.952;2022-08-19T10:15:35;2.22;;;0.70;;
21630;SDS011;10977;46.802;11.952;2022-08-19T10:18:00;2.47;;;0.75;;
21630;SDS011;10977;46.802;11.952;2022-08-19T10:20:26;1.13;;;0.70;;
21630;SDS011;10977;46.802;11.952;2022-08-19T10:22:51;2.72;;;0.73;;
21630;SDS011;10977;46.802;11.952;2022-08-19T10:25:17;3.58;;;0.70;;
21630;SDS011;10977;46.802;11.952;2022-08-19T10:27:42;5.80;;;0.82;;
21630;SDS011;10977;46.802;11.952;2022-08-19T10:30:08;1.05;;;0.80;;
21630;SDS011;10977;46.802;11.952;2022-08-19T10:32:34;1.08;;;0.80;;
21630;SDS011;10977;46.802;11.952;2022-08-19T10:35:00;2.17;;;0.95;;
21630;SDS011;10977;46.802;11.952;2022-08-19T10:37:27;2.40;;;0.75;;
21630;SDS011;10977;46.802;11.952;2022-08-19T10:39:52;4.35;;;0.90;;
21630;SDS011;10977;46.802;11.952;2022-08-19T10:42:18;3.42;;;1.00;;
21630;SDS011;10977;46.802;11.952;2022-08-19T10:44:44;2.38;;;1.08;;
21630;SDS011;10977;46.802;11.952;2022-08-19T10:47:11;2.55;;;1.38;;
21630;SDS011;10977;46.802;11.952;2022-08-19T10:49:37;2.80;;;1.05;;
21630;SDS011;10977;46.802;11.952;2022-08-19T10:52:22;1.90;;;1.00;;
21630;SDS011;10977;46.802;11.952;2022-08-19T10:55:00;2.35;;;1.00;;
21630;SDS011;10977;46.802;11.952;2022-08-19T10:57:44;2.83;;;0.93;;
21630;SDS011;10977;46.802;11.952;2022-08-19T11:00:10;5.20;;;0.93;;
21630;SDS011;10977;46.802;11.952;2022-08-19T11:02:36;2.70;;;0.98;;
21630;SDS011;10977;46.802;11.952;2022-08-19T11:05:02;2.67;;;1.00;;
21630;SDS011;10977;46.802;11.952;2022-08-19T11:07:27;3.65;;;1.20;;
21630;SDS011;10977;46.802;11.952;2022-08-19T11:09:53;5.88;;;1.10;;
21630;SDS011;10977;46.802;11.952;2022-08-19T11:12:18;1.63;;;1.20;;
21630;SDS011;10977;46.802;11.952;2022-08-19T11:14:44;1.75;;;0.85;;
21630;SDS011;10977;46.802;11.952;2022-08-19T11:17:09;2.22;;;0.82;;
21630;SDS011;10977;46.802;11.952;2022-08-19T11:19:38;5.20;;;1.13;;
21630;SDS011;10977;46.802;11.952;2022-08-19T11:22:07;2.53;;;1.05;;
21630;SDS011;10977;46.802;11.952;2022-08-19T11:24:35;3.42;;;1.10;;
21630;SDS011;10977;46.802;11.952;2022-08-19T11:27:05;1.83;;;0.80;;
21630;SDS011;10977;46.802;11.952;2022-08-19T11:29:34;2.75;;;1.23;;
21630;SDS011;10977;46.802;11.952;2022-08-19T11:32:03;2.13;;;0.85;;
21630;SDS011;10977;46.802;11.952;2022-08-19T11:34:37;5.05;;;0.90;;
21630;SDS011;10977;46.802;11.952;2022-08-19T11:37:04;0.70;;;0.60;;
21630;SDS011;10977;46.802;11.952;2022-08-19T11:39:30;1.90;;;0.60;;
21630;SDS011;10977;46.802;11.952;2022-08-19T11:41:57;2.40;;;0.98;;
21630;SDS011;10977;46.802;11.952;2022-08-19T11:44:24;2.75;;;0.80;;
21630;SDS011;10977;46.802;11.952;2022-08-19T11:46:50;2.88;;;0.80;;
21630;SDS011;10977;46.802;11.952;2022-08-19T11:49:18;2.10;;;1.00;;
21630;SDS011;10977;46.802;11.952;2022-08-19T11:51:45;3.78;;;1.10;;
21630;SDS011;10977;46.802;11.952;2022-08-19T11:54:12;1.10;;;0.77;;
21630;SDS011;10977;46.802;11.952;2022-08-19T11:56:40;3.88;;;0.90;;
21630;SDS011;10977;46.802;11.952;2022-08-19T11:59:06;2.60;;;0.90;;
21630;SDS011;10977;46.802;11.952;2022-08-19T12:01:32;2.90;;;0.98;;
21630;SDS011;10977;46.802;11.952;2022-08-19T12:03:58;2.70;;;0.77;;
21630;SDS011;10977;46.802;11.952;2022-08-19T12:06:26;1.95;;;0.90;;
21630;SDS011;10977;46.802;11.952;2022-08-19T12:08:57;3.45;;;0.95;;
21630;SDS011;10977;46.802;11.952;2022-08-19T12:11:25;4.57;;;0.82;;
21630;SDS011;10977;46.802;11.952;2022-08-19T12:13:51;2.95;;;0.90;;
21630;SDS011;10977;46.802;11.952;2022-08-19T12:16:22;4.05;;;0.80;;
21630;SDS011;10977;46.802;11.952;2022-08-19T12:18:49;2.60;;;0.90;;
21630;SDS011;10977;46.802;11.952;2022-08-19T12:21:18;5.03;;;1.10;;
21630;SDS011;10977;46.802;11.952;2022-08-19T12:23:47;2.25;;;0.95;;
21630;SDS011;10977;46.802;11.952;2022-08-19T12:26:14;2.05;;;0.70;;
21630;SDS011;10977;46.802;11.952;2022-08-19T12:28:40;4.80;;;0.98;;
21630;SDS011;10977;46.802;11.952;2022-08-19T12:31:06;2.25;;;0.90;;
21630;SDS011;10977;46.802;11.952;2022-08-19T12:33:32;2.22;;;0.73;;
21630;SDS011;10977;46.802;11.952;2022-08-19T12:36:05;2.60;;;0.75;;
21630;SDS011;10977;46.802;11.952;2022-08-19T12:38:32;1.95;;;0.75;;
21630;SDS011;10977;46.802;11.952;2022-08-19T12:40:59;3.63;;;1.35;;
21630;SDS011;10977;46.802;11.952;2022-08-19T12:43:25;1.27;;;0.70;;
21630;SDS011;10977;46.802;11.952;2022-08-19T12:45:50;2.00;;;1.10;;
21630;SDS011;10977;46.802;11.952;2022-08-19T12:48:16;4.50;;;1.02;;
21630;SDS011;10977;46.802;11.952;2022-08-19T12:50:42;1.25;;;0.77;;
21630;SDS011;10977;46.802;11.952;2022-08-19T12:53:10;5.95;;;1.00;;
21630;SDS011;10977;46.802;11.952;2022-08-19T12:55:36;2.78;;;0.95;;
21630;SDS011;10977;46.802;11.952;2022-08-19T12:58:01;4.50;;;1.10;;
21630;SDS011;10977;46.802;11.952;2022-08-19T13:00:27;1.67;;;0.77;;
21630;SDS011;10977;46.802;11.952;2022-08-19T13:02:53;2.10;;;1.08;;
21630;SDS011;10977;46.802;11.952;2022-08-19T13:05:20;4.95;;;0.70;;
21630;SDS011;10977;46.802;11.952;2022-08-19T13:07:48;7.18;;;1.38;;
21630;SDS011;10977;46.802;11.952;2022-08-19T13:10:15;3.75;;;0.90;;
21630;SDS011;10977;46.802;11.952;2022-08-19T13:12:42;1.35;;;0.77;;
21630;SDS011;10977;46.802;11.952;2022-08-19T13:15:09;2.72;;;0.88;;
21630;SDS011;10977;46.802;11.952;2022-08-19T13:17:35;1.73;;;1.00;;
21630;SDS011;10977;46.802;11.952;2022-08-19T13:20:02;3.97;;;1.10;;
21630;SDS011;10977;46.802;11.952;2022-08-19T13:22:29;2.60;;;0.80;;
21630;SDS011;10977;46.802;11.952;2022-08-19T13:24:55;1.45;;;0.85;;
21630;SDS011;10977;46.802;11.952;2022-08-19T13:27:20;3.90;;;0.90;;
21630;SDS011;10977;46.802;11.952;2022-08-19T13:29:45;2.53;;;0.73;;
21630;SDS011;10977;46.802;11.952;2022-08-19T13:32:29;2.90;;;0.98;;
21630;SDS011;10977;46.802;11.952;2022-08-19T13:35:14;2.30;;;0.73;;
21630;SDS011;10977;46.802;11.952;2022-08-19T13:37:40;4.13;;;0.80;;
21630;SDS011;10977;46.802;11.952;2022-08-19T13:40:16;2.78;;;1.00;;
21630;SDS011;10977;46.802;11.952;2022-08-19T13:42:49;4.25;;;1.20;;
21630;SDS011;10977;46.802;11.952;2022-08-19T13:45:17;1.75;;;0.65;;
21630;SDS011;10977;46.802;11.952;2022-08-19T13:47:51;4.43;;;1.10;;
21630;SDS011;10977;46.802;11.952;2022-08-19T13:50:19;1.75;;;0.90;;
21630;SDS011;10977;46.802;11.952;2022-08-19T13:52:46;2.60;;;1.00;;
21630;SDS011;10977;46.802;11.952;2022-08-19T13:55:13;1.73;;;0.90;;
21630;SDS011;10977;46.802;11.952;2022-08-19T13:57:39;1.80;;;0.75;;
21630;SDS011;10977;46.802;11.952;2022-08-19T14:00:06;1.88;;;0.90;;
21630;SDS011;10977;46.802;11.952;2022-08-19T14:02:38;5.70;;;0.80;;
21630;SDS011;10977;46.802;11.952;2022-08-19T14:05:05;2.90;;;0.90;;
21630;SDS011;10977;46.802;11.952;2022-08-19T14:07:33;1.45;;;0.55;;
21630;SDS011;10977;46.802;11.952;2022-08-19T14:09:59;3.15;;;0.88;;
21630;SDS011;10977;46.802;11.952;2022-08-19T14:12:24;4.45;;;0.80;;
21630;SDS011;10977;46.802;11.952;2022-08-19T14:14:49;3.50;;;0.68;;
21630;SDS011;10977;46.802;11.952;2022-08-19T14:17:15;0.90;;;0.63;;
21630;SDS011;10977;46.802;11.952;2022-08-19T14:19:40;2.85;;;0.90;;
21630;SDS011;10977;46.802;11.952;2022-08-19T14:22:06;2.50;;;0.60;;
21630;SDS011;10977;46.802;11.952;2022-08-19T14:24:32;4.07;;;0.93;;
21630;SDS011;10977;46.802;11.952;2022-08-19T14:26:57;2.28;;;0.68;;
21630;SDS011;10977;46.802;11.952;2022-08-19T14:29:24;0.98;;;0.52;;
21630;SDS011;10977;46.802;11.952;2022-08-19T14:31:50;2.65;;;0.80;;
21630;SDS011;10977;46.802;11.952;2022-08-19T14:34:15;1.52;;;0.70;;
21630;SDS011;10977;46.802;11.952;2022-08-19T14:36:41;2.35;;;0.57;;
21630;SDS011;10977;46.802;11.952;2022-08-19T14:39:06;3.50;;;0.70;;
21630;SDS011;10977;46.802;11.952;2022-08-19T14:41:33;3.47;;;0.73;;
21630;SDS011;10977;46.802;11.952;2022-08-19T14:43:59;1.00;;;0.50;;
21630;SDS011;10977;46.802;11.952;2022-08-19T14:46:26;0.95;;;0.63;;
21630;SDS011;10977;46.802;11.952;2022-08-19T14:48:53;4.43;;;0.57;;